Flight Track Log - Related Links

Times and Time Zones

All times are in EDT time to prevent confusion due to time zone crossing. See the QXE2079 flight status page for this flight to view local times or setup timezone preferences in your user account.

Time Position Orientation Groundspeed Altitude Reporting Facility
EDT Latitude Longitude Course Direction KTS MPH feet Rate Location/Type
Fri 05:22:00 PM 46.2202 -118.9272 287° West  Level FlightAware Approximate
Fri 05:23:00 PM 46.2432 -119.0348 287° West  Level FlightAware Approximate
Fri 05:24:00 PM 46.2609 -119.1433 290° West  Level FlightAware Approximate
Fri 05:25:00 PM 46.2875 -119.2493 290° West  Level FlightAware Approximate
Fri 05:26:00 PM 46.3140 -119.3554 290° West  Level FlightAware Approximate
Fri 05:27:00 PM 46.3355 -119.4630 284° West  Level FlightAware Approximate
Fri 05:28:00 PM 46.3555 -119.5720 290° West  Level FlightAware Approximate
Fri 05:29:00 PM 46.3820 -119.6782 290° West  Level FlightAware Approximate
Fri 05:30:00 PM 46.4130 -119.7819 294° West  Level FlightAware Approximate
Fri 05:31:00 PM 46.4396 -119.8878 284° West  Level FlightAware Approximate
Fri 05:32:00 PM 46.4613 -119.9963 290° West  Level FlightAware Approximate
Fri 05:33:00 PM 46.4872 -120.1030 289° West  Level FlightAware Approximate
Fri 05:34:00 PM 46.5131 -120.2099 289° West  Level FlightAware Approximate
Fri 05:35:00 PM 46.5388 -120.3168 289° West  Level FlightAware Approximate
Fri 05:36:00 PM 46.5644 -120.4238 289° West  Level FlightAware Approximate
Fri 05:37:00 PM 46.6007 -120.5240 299° West  Level FlightAware Approximate
Fri 05:38:00 PM 46.6477 -120.6133 314° West  Level FlightAware Approximate
Fri 05:39:00 PM 46.6896 -120.7090 302° West  Level FlightAware Approximate
Fri 05:40:00 PM 46.7326 -120.8037 302° West  Level FlightAware Approximate
Fri 05:41:00 PM 46.7747 -120.8994 306° West  Level FlightAware Approximate
Fri 05:42:00 PM 46.8207 -120.9913 306° West  Level FlightAware Approximate
Fri 05:43:00 PM 46.8654 -121.0845 303° West  Level FlightAware Approximate
Fri 05:44:00 PM 46.9080 -121.1801 303° West  Level FlightAware Approximate
Fri 05:45:00 PM 46.9505 -121.2758 303° West  Level FlightAware Approximate
Fri 05:46:00 PM 47.0005 -121.3511 303° West  Level FlightAware Approximate
Fri 05:47:00 PM 47.0431 -121.4468 303° West  Level FlightAware Approximate
Fri 05:48:00 PM 47.0786 -121.5479 290° West  Level FlightAware Approximate
Fri 05:49:00 PM 47.1247 -121.6390 310° West  Level FlightAware Approximate
Fri 05:50:00 PM 47.1661 -121.7322 306° West  Level FlightAware Approximate
Fri 05:51:00 PM 47.2170 -121.8175 301° West  Level FlightAware Approximate
Fri 05:52:00 PM 47.2566 -121.9164 301° West  Level FlightAware Approximate
Fri 05:53:00 PM 47.2944 -122.0167 296° West  Level FlightAware Approximate
Fri 05:54:00 PM 47.3412 -122.1069 296° West  Level FlightAware Approximate
Fri 05:55:00 PM 47.3845 -122.2022 306° West  Level FlightAware Approximate
Fri 05:56:00 PM 47.4308 -122.2949 306° West  Level FlightAware Approximate
Fri 05:57:00 PM 47.4333 -122.3000 306° West  Level FlightAware Approximate
Fri 05:58:00 PM 47.4499 -122.3118 306° West  Level Estimated
Fri 05:59:00 PM 47.4499 -122.3118 306° West  Level Estimated
Fri 06:00:00 PM 47.4499 -122.3118 306° West  Level Estimated
Fri 06:01:00 PM 47.4499 -122.3118 306° West  Level Estimated
Fri 06:02:00 PM 47.4499 -122.3118 306° West  Level Estimated
Fri 06:03:00 PM 47.4499 -122.3118 306° West  Level Estimated
Fri 06:04:00 PM 47.4499 -122.3118 306° West  Level Estimated
Fri 06:05:00 PM 47.4499 -122.3118 306° West  Level Estimated
Fri 06:06:00 PM 47.4499 -122.3118 306° West  Level Estimated
Fri 06:07:00 PM 47.4499 -122.3118 306° West  Level Estimated
Fri 06:08:00 PM 47.4499 -122.3118 306° West  Level Estimated
Fri 06:09:00 PM 47.4499 -122.3118 306° West  Level Estimated
Fri 06:10:00 PM 47.4499 -122.3118 306° West  Level Estimated
Fri 06:11:00 PM 47.4499 -122.3118 306° West  Level Estimated
Fri 06:12:00 PM 47.4499 -122.3118 306° West  Level Estimated
Fri 06:13:00 PM 47.4499 -122.3118 306° West  Level Estimated
Fri 06:14:00 PM 47.4499 -122.3118 306° West  Level Estimated
Fri 06:15:00 PM 47.4499 -122.3118 306° West  Level Estimated

Login

Don't have an account? Register now (free) for customized features, flight alerts, and more!